Time;durP1;ratioP1;P1;durP2;ratioP2;P2;SDS_P1;SDS_P2;PMS_P1;PMS_P2;Temp;Humidity;BMP_temperature;BMP_pressure;BME280_temperature;BME280_humidity;BME280_pressure;Samples;Min_cycle;Max_cycle;Signal;HPM_P1;HPM_P2
2023/01/31 00:01:26;;;;;;;22.27;4.13;;;;;;;3.38;100.00;102364.00;4973816;28;20505;-59
2023/01/31 00:03:53;;;;;;;19.85;4.05;;;;;;;3.04;100.00;102294.72;4969722;28;20491;-60
2023/01/31 00:06:23;;;;;;;15.57;3.60;;;;;;;3.45;100.00;102336.34;4973643;28;20129;-60
2023/01/31 00:08:50;;;;;;;12.57;3.60;;;;;;;3.26;100.00;102286.56;4975006;28;20163;-60
2023/01/31 00:11:17;;;;;;;15.93;3.67;;;;;;;3.86;100.00;102374.50;4974851;28;20253;-60
2023/01/31 00:13:42;;;;;;;17.20;4.30;;;;;;;3.88;100.00;102363.25;4973489;28;20312;-60
2023/01/31 00:16:09;;;;;;;13.73;3.42;;;;;;;3.76;100.00;102331.81;4972850;28;20038;-60
2023/01/31 00:18:34;;;;;;;18.58;3.50;;;;;;;3.58;100.00;102287.19;4974812;28;20114;-58
2023/01/31 00:21:14;;;;;;;28.33;4.32;;;;;;;4.01;100.00;102364.38;4974861;28;20117;-60
2023/01/31 00:23:40;;;;;;;20.23;3.75;;;;;;;4.09;100.00;102354.09;4975089;28;20034;-60
2023/01/31 00:26:19;;;;;;;12.15;3.35;;;;;;;4.06;100.00;102339.28;4974390;28;20463;-59
2023/01/31 00:28:46;;;;;;;26.60;4.10;;;;;;;3.52;100.00;102235.00;4973568;28;20419;-59
2023/01/31 00:31:12;;;;;;;23.27;4.15;;;;;;;4.02;100.00;102321.84;4974393;28;20038;-60
2023/01/31 00:33:40;;;;;;;18.17;3.70;;;;;;;3.87;100.00;102303.34;4973298;28;20061;-60
2023/01/31 00:36:08;;;;;;;36.85;5.18;;;;;;;3.51;100.00;102235.84;4974355;28;20537;-59
2023/01/31 00:38:34;;;;;;;14.45;3.05;;;;;;;3.84;100.00;102304.16;4974422;28;20034;-59
2023/01/31 00:41:00;;;;;;;18.60;4.55;;;;;;;3.82;100.00;102303.25;4972859;28;20144;-60
2023/01/31 00:43:25;;;;;;;19.83;4.38;;;;;;;3.30;100.00;102212.88;4974279;28;20043;-60
2023/01/31 00:45:51;;;;;;;20.40;3.95;;;;;;;3.60;100.00;102295.00;4956944;28;20039;-60
2023/01/31 00:48:16;;;;;;;18.15;3.22;;;;;;;3.27;100.00;102236.25;4972816;28;20454;-60
2023/01/31 00:50:41;;;;;;;15.80;3.33;;;;;;;3.56;100.00;102295.81;4974011;28;20051;-59
2023/01/31 00:53:07;;;;;;;25.02;4.40;;;;;;;3.54;100.00;102287.97;4974043;28;20089;-59
2023/01/31 00:55:32;;;;;;;16.42;3.28;;;;;;;3.56;100.00;102264.56;4974272;28;20121;-59
2023/01/31 00:57:58;;;;;;;15.77;3.75;;;;;;;3.76;100.00;102286.66;4974013;28;20125;-60
2023/01/31 01:00:23;;;;;;;19.02;3.92;;;;;;;3.79;100.00;102282.38;4973767;28;20122;-60
2023/01/31 01:02:48;;;;;;;20.98;3.97;;;;;;;3.28;100.00;102196.38;4973871;28;20039;-60
2023/01/31 01:05:14;;;;;;;19.15;4.30;;;;;;;3.34;100.00;102238.13;4973481;28;20031;-60
2023/01/31 01:07:40;;;;;;;15.18;3.50;;;;;;;3.61;100.00;102282.03;4972855;28;20430;-59
2023/01/31 01:10:06;;;;;;;24.10;4.05;;;;;;;3.15;100.00;102183.97;4974067;28;20049;-60
2023/01/31 01:12:31;;;;;;;19.33;3.40;;;;;;;3.09;100.00;102191.69;4972346;28;20213;-59
2023/01/31 01:14:57;;;;;;;17.20;3.80;;;;;;;3.03;100.00;102170.75;4973533;28;20114;-59
2023/01/31 01:17:22;;;;;;;18.27;3.95;;;;;;;2.96;100.00;102168.84;4973538;28;20047;-60
2023/01/31 01:19:47;;;;;;;21.65;4.40;;;;;;;3.21;100.00;102215.31;4973447;28;20042;-61
2023/01/31 01:22:15;;;;;;;16.02;4.18;;;;;;;3.04;100.00;102169.88;4972414;28;20077;-60
2023/01/31 01:24:42;;;;;;;18.98;4.15;;;;;;;2.82;100.00;102139.09;4973602;28;20057;-60
2023/01/31 01:27:08;;;;;;;22.15;4.63;;;;;;;2.90;100.00;102154.84;4973288;28;20039;-59
2023/01/31 01:29:34;;;;;;;22.33;4.53;;;;;;;3.01;100.00;102175.00;4972858;28;20502;-59
2023/01/31 01:31:59;;;;;;;33.15;5.93;;;;;;;3.46;100.00;102232.28;4972115;28;20043;-59
2023/01/31 01:34:25;;;;;;;22.58;4.75;;;;;;;3.56;100.00;102261.97;4973436;28;20031;-60
2023/01/31 01:36:50;;;;;;;33.30;5.68;;;;;;;3.16;100.00;102177.91;4973111;28;20510;-60
2023/01/31 01:39:16;;;;;;;26.52;5.10;;;;;;;3.23;100.00;102173.72;4973149;28;20105;-59
2023/01/31 01:41:41;;;;;;;19.98;5.35;;;;;;;3.59;100.00;102231.63;4972048;28;20039;-60
2023/01/31 01:44:51;;;;;;;29.15;6.03;;;;;;;3.92;100.00;102260.88;4973034;28;20037;-59
2023/01/31 01:47:34;;;;;;;23.98;5.15;;;;;;;4.06;100.00;102271.53;4927012;28;20047;-59
2023/01/31 01:50:09;;;;;;;30.80;5.55;;;;;;;4.05;100.00;102259.38;4972911;28;20090;-59
2023/01/31 01:52:46;;;;;;;24.48;5.55;;;;;;;4.20;100.00;102277.00;4971822;28;20031;-59
2023/01/31 01:55:20;;;;;;;33.50;5.47;;;;;;;3.82;100.00;102186.03;4971843;28;20030;-60
2023/01/31 01:57:47;;;;;;;37.22;6.57;;;;;;;3.80;100.00;102176.44;4972112;28;20398;-59
2023/01/31 02:00:20;;;;;;;21.00;5.72;;;;;;;4.08;100.00;102206.44;4973254;28;20038;-60
2023/01/31 02:02:46;;;;;;;25.27;5.85;;;;;;;4.40;100.00;102253.00;4972728;28;20097;-59
2023/01/31 02:05:16;;;;;;;25.27;5.78;;;;;;;4.54;100.00;102281.88;4972893;28;20042;-60
2023/01/31 02:07:41;;;;;;;28.33;8.13;;;;;;;4.08;100.00;102177.78;4955661;28;20034;-60
2023/01/31 02:10:11;;;;;;;26.67;7.05;;;;;;;4.62;100.00;102259.38;4971457;28;20047;-60
2023/01/31 02:12:37;;;;;;;28.83;6.68;;;;;;;4.61;100.00;102262.00;4972886;28;20189;-60
2023/01/31 02:15:03;;;;;;;32.95;6.78;;;;;;;4.65;100.00;102246.41;4971502;28;20130;-60
2023/01/31 02:17:28;;;;;;;23.55;6.57;;;;;;;4.76;100.00;102265.69;4955383;28;20455;-60
2023/01/31 02:20:05;;;;;;;33.05;6.53;;;;;;;4.54;100.00;102229.72;4976771;28;20054;-60
2023/01/31 02:23:17;;;;;;;31.55;7.60;;;;;;;4.65;100.00;102261.16;4976725;28;20061;-59
2023/01/31 02:26:05;;;;;;;32.42;7.93;;;;;;;4.50;100.00;102240.94;4898041;29;20043;-59
2023/01/31 02:28:45;;;;;;;25.67;6.75;;;;;;;4.26;100.00;102199.75;4976737;28;20058;-60
2023/01/31 02:31:35;;;;;;;25.90;7.28;;;;;;;4.57;100.00;102261.06;4975508;28;20027;-60
2023/01/31 02:34:07;;;;;;;35.47;8.20;;;;;;;4.55;100.00;102268.84;4976526;28;20038;-60
2023/01/31 02:36:42;;;;;;;21.35;6.20;;;;;;;4.54;100.00;102246.25;4975318;28;20061;-60
2023/01/31 02:39:17;;;;;;;35.33;8.30;;;;;;;4.05;100.00;102159.50;4976398;28;20129;-60
2023/01/31 02:42:00;;;;;;;31.73;7.47;;;;;;;4.63;100.00;102249.84;4976554;28;20038;-60
2023/01/31 02:47:18;;;;;;;36.05;7.88;;;;;;;4.76;100.00;102241.34;4975304;28;20065;-59
2023/01/31 02:49:51;;;;;;;37.00;8.70;;;;;;;4.39;100.00;102162.59;4976178;28;20135;-60
2023/01/31 02:52:26;;;;;;;27.33;6.63;;;;;;;4.87;100.00;102244.97;4975044;28;20037;-60
2023/01/31 02:57:43;;;;;;;24.63;7.07;;;;;;;4.84;100.00;102219.72;4975229;28;20046;-60
2023/01/31 03:00:09;;;;;;;32.60;7.57;;;;;;;4.39;100.00;102130.44;4974327;28;20062;-60
2023/01/31 03:02:35;;;;;;;33.80;8.52;;;;;;;4.83;100.00;102206.66;4974776;28;20052;-60
2023/01/31 03:05:01;;;;;;;29.48;7.60;;;;;;;4.89;100.00;102214.53;4975856;28;20402;-60
2023/01/31 03:07:30;;;;;;;28.30;6.68;;;;;;;4.90;100.00;102234.56;4974852;28;20432;-60
2023/01/31 03:09:55;;;;;;;32.38;7.43;;;;;;;4.81;100.00;102213.59;4974576;28;20126;-59
2023/01/31 03:12:23;;;;;;;25.48;7.35;;;;;;;4.73;100.00;102215.22;4974872;28;20399;-59
2023/01/31 03:15:00;;;;;;;34.88;7.57;;;;;;;4.35;100.00;102168.63;4975895;28;20034;-60
2023/01/31 03:17:43;;;;;;;35.03;8.05;;;;;;;4.65;100.00;102217.72;4974308;28;20340;-59
2023/01/31 03:20:15;;;;;;;34.33;7.95;;;;;;;4.61;100.00;102217.66;4974530;28;20065;-59
2023/01/31 03:22:54;;;;;;;31.92;8.77;;;;;;;4.07;100.00;102129.09;4975858;28;20070;-59
2023/01/31 03:25:22;;;;;;;25.88;7.80;;;;;;;4.55;100.00;102223.66;4974566;28;20031;-59
2023/01/31 03:27:51;;;;;;;41.67;8.57;;;;;;;4.42;100.00;102200.88;4974510;28;20408;-60
2023/01/31 03:30:22;;;;;;;35.67;9.02;;;;;;;4.59;100.00;102212.41;4957259;28;20035;-60
2023/01/31 03:32:55;;;;;;;36.17;7.95;;;;;;;4.25;100.00;102121.56;4975189;28;20033;-59
2023/01/31 03:35:24;;;;;;;30.70;8.10;;;;;;;4.78;100.00;102211.81;4974469;28;20562;-60
2023/01/31 03:38:10;;;;;;;30.38;7.85;;;;;;;4.75;100.00;102185.69;4974679;28;20035;-60
2023/01/31 03:40:39;;;;;;;36.10;7.57;;;;;;;4.27;100.00;102096.38;4974195;28;20441;-59
2023/01/31 03:43:19;;;;;;;23.75;7.38;;;;;;;4.83;100.00;102191.88;4974188;28;20034;-59
2023/01/31 03:45:48;;;;;;;36.20;9.45;;;;;;;4.47;100.00;102115.75;4974092;28;20035;-60
2023/01/31 03:48:17;;;;;;;38.00;6.70;;;;;;;4.84;100.00;102185.81;4975407;28;20147;-60
2023/01/31 03:50:57;;;;;;;32.47;6.82;;;;;;;4.75;100.00;102157.00;4974926;28;20533;-60
2023/01/31 03:53:35;;;;;;;28.08;7.10;;;;;;;4.51;100.00;102123.66;4973722;28;20047;-60
2023/01/31 03:56:13;;;;;;;29.10;6.30;;;;;;;4.46;100.00;102116.63;4973883;28;20027;-62
2023/01/31 03:58:43;;;;;;;24.80;6.15;;;;;;;4.44;100.00;102110.50;4974055;28;20482;-61
2023/01/31 04:01:09;;;;;;;27.77;6.75;;;;;;;4.19;100.00;102049.38;4975181;28;20088;-61
2023/01/31 04:03:53;;;;;;;31.73;6.00;;;;;;;5.18;100.00;102188.78;4973518;28;20031;-60
2023/01/31 04:06:18;;;;;;;26.65;6.05;;;;;;;4.72;100.00;102104.78;4975186;28;20081;-60
2023/01/31 04:08:43;;;;;;;22.23;6.40;;;;;;;5.23;100.00;102180.16;4974781;28;20034;-60
2023/01/31 04:11:13;;;;;;;30.58;6.55;;;;;;;4.88;100.00;102091.03;4973398;28;20529;-60
2023/01/31 04:13:39;;;;;;;32.33;5.72;;;;;;;5.06;100.00;102106.03;4973441;28;20456;-59
2023/01/31 04:16:04;;;;;;;30.33;6.78;;;;;;;5.52;100.00;102188.28;4974856;28;20182;-59
2023/01/31 04:18:30;;;;;;;20.85;5.30;;;;;;;5.55;100.00;102164.78;4974656;28;20035;-59
2023/01/31 04:20:55;;;;;;;35.72;6.15;;;;;;;5.61;100.00;102167.47;4973577;28;20121;-59
2023/01/31 04:23:20;;;;;;;23.23;6.68;;;;;;;5.62;100.00;102161.41;4973374;28;20121;-59
2023/01/31 04:25:46;;;;;;;24.13;5.43;;;;;;;5.65;100.00;102161.41;4974569;28;20035;-60
2023/01/31 04:28:11;;;;;;;27.65;5.63;;;;;;;5.68;100.00;102164.94;4974641;28;20043;-60
2023/01/31 04:30:37;;;;;;;22.63;5.07;;;;;;;5.26;100.00;102080.97;4974236;28;20035;-60
2023/01/31 04:33:02;;;;;;;30.35;5.95;;;;;;;5.33;100.00;102076.69;4973047;28;20074;-60
2023/01/31 04:35:27;;;;;;;22.42;4.50;;;;;;;5.78;100.00;102157.19;4974757;28;20177;-59
2023/01/31 04:37:53;;;;;;;30.77;5.45;;;;;;;5.82;100.00;102157.22;4974520;28;20041;-58
2023/01/31 04:40:18;;;;;;;19.77;4.55;;;;;;;5.48;100.00;102092.50;4974218;28;20063;-59
2023/01/31 04:42:44;;;;;;;24.63;5.38;;;;;;;5.82;100.00;102141.53;4974329;28;20043;-60
2023/01/31 04:45:10;;;;;;;16.90;4.68;;;;;;;5.41;100.00;102070.69;4972963;28;20410;-63
2023/01/31 04:47:36;;;;;;;25.95;4.88;;;;;;;5.77;100.00;102135.41;4972477;28;20050;-59
2023/01/31 04:50:01;;;;;;;21.67;5.25;;;;;;;5.85;100.00;102162.50;4974255;28;20050;-60
2023/01/31 04:52:26;;;;;;;25.23;5.28;;;;;;;5.77;100.00;102134.53;4973075;28;20041;-59
2023/01/31 04:54:52;;;;;;;17.48;4.22;;;;;;;5.85;100.00;102148.50;4974159;28;20035;-61
2023/01/31 04:57:17;;;;;;;17.85;4.28;;;;;;;5.85;100.00;102152.03;4974211;28;20031;-61
2023/01/31 04:59:42;;;;;;;18.05;3.80;;;;;;;5.86;100.00;102145.09;4973847;28;20405;-59
2023/01/31 05:02:08;;;;;;;20.48;4.53;;;;;;;5.89;100.00;102147.72;4973797;28;20034;-59
2023/01/31 05:04:33;;;;;;;17.13;3.55;;;;;;;5.44;100.00;102075.03;4972949;28;20039;-59
2023/01/31 05:06:58;;;;;;;17.92;4.65;;;;;;;5.40;100.00;102063.69;4973929;28;20085;-59
2023/01/31 05:09:24;;;;;;;18.58;4.15;;;;;;;5.48;100.00;102062.03;4973823;28;20051;-58
2023/01/31 05:11:50;;;;;;;27.15;4.45;;;;;;;5.93;100.00;102124.22;4973448;28;20043;-59
2023/01/31 05:14:16;;;;;;;20.42;4.63;;;;;;;5.93;100.00;102120.72;4972906;28;20034;-59
2023/01/31 05:16:45;;;;;;;25.52;4.10;;;;;;;5.56;100.00;102052.53;4973430;28;20031;-61
2023/01/31 05:19:12;;;;;;;15.73;4.07;;;;;;;5.49;100.00;102048.09;4973653;28;20493;-61
2023/01/31 05:21:53;;;;;;;14.38;3.33;;;;;;;5.54;100.00;102054.25;4973630;28;20089;-60
2023/01/31 05:24:22;;;;;;;16.95;4.28;;;;;;;6.03;100.00;102146.97;4973674;28;20062;-61
2023/01/31 05:26:49;;;;;;;14.73;3.80;;;;;;;5.91;100.00;102131.19;4973222;28;20039;-61
2023/01/31 05:29:14;;;;;;;25.08;4.50;;;;;;;5.69;100.00;102085.69;4956154;28;20046;-60
2023/01/31 05:31:40;;;;;;;16.23;3.50;;;;;;;5.61;100.00;102058.66;4972529;28;20513;-61
2023/01/31 05:34:06;;;;;;;14.73;3.72;;;;;;;6.10;100.00;102138.28;4973774;28;20030;-60
2023/01/31 05:36:31;;;;;;;16.48;3.78;;;;;;;6.10;100.00;102129.59;4972278;28;20376;-60
2023/01/31 05:38:56;;;;;;;14.52;4.05;;;;;;;6.10;100.00;102137.41;4973204;28;20477;-60
2023/01/31 05:41:22;;;;;;;19.75;4.55;;;;;;;5.86;100.00;102103.28;4973677;28;20057;-60
2023/01/31 05:43:47;;;;;;;16.30;3.53;;;;;;;6.12;100.00;102146.13;4973234;28;20402;-60
2023/01/31 05:46:12;;;;;;;20.75;4.22;;;;;;;6.14;100.00;102155.75;4973219;28;20463;-59
2023/01/31 05:48:38;;;;;;;19.20;3.75;;;;;;;6.15;100.00;102139.19;4972571;28;20315;-59
2023/01/31 05:51:03;;;;;;;21.38;4.25;;;;;;;5.74;100.00;102075.28;4972921;28;20066;-59
2023/01/31 05:53:28;;;;;;;15.93;3.67;;;;;;;6.22;100.00;102161.00;4972401;28;20038;-60
2023/01/31 05:55:54;;;;;;;18.02;4.90;;;;;;;6.21;100.00;102157.53;4971585;28;20094;-59
2023/01/31 05:58:19;;;;;;;23.42;4.47;;;;;;;5.73;100.00;102070.91;4972968;28;20434;-60
2023/01/31 06:00:44;;;;;;;16.75;3.30;;;;;;;6.05;100.00;102119.06;4973258;28;20042;-60
2023/01/31 06:03:10;;;;;;;23.90;4.95;;;;;;;6.15;100.00;102151.38;4972931;28;20054;-60
2023/01/31 06:05:35;;;;;;;11.88;3.38;;;;;;;6.15;100.00;102136.59;4973007;28;20031;-59
2023/01/31 06:08:00;;;;;;;17.08;4.35;;;;;;;6.19;100.00;102130.50;4972927;28;20041;-60
2023/01/31 06:10:26;;;;;;;15.13;4.43;;;;;;;5.79;100.00;102052.66;4972965;28;20103;-60
2023/01/31 06:12:51;;;;;;;22.45;5.13;;;;;;;5.80;100.00;102048.31;4971372;28;20486;-60
2023/01/31 06:15:17;;;;;;;26.50;5.15;;;;;;;6.25;100.00;102131.41;4973124;28;20090;-60
2023/01/31 06:17:42;;;;;;;18.65;4.38;;;;;;;6.27;100.00;102130.56;4972906;28;20463;-60
2023/01/31 06:20:08;;;;;;;15.68;4.45;;;;;;;6.27;100.00;102127.06;4972716;28;20509;-61
2023/01/31 06:22:33;;;;;;;19.98;4.35;;;;;;;6.29;100.00;102133.16;4971394;28;20501;-61
2023/01/31 06:24:59;;;;;;;23.27;4.25;;;;;;;6.29;100.00;102125.31;4972307;28;20066;-60
2023/01/31 06:27:24;;;;;;;22.10;4.47;;;;;;;5.94;100.00;102075.44;4972996;28;20031;-59
2023/01/31 06:29:49;;;;;;;20.73;4.18;;;;;;;5.77;100.00;102025.66;4971972;28;20043;-60
2023/01/31 06:32:15;;;;;;;21.27;4.22;;;;;;;6.25;100.00;102124.41;4973037;28;20397;-59
2023/01/31 06:34:40;;;;;;;23.83;4.50;;;;;;;6.21;100.00;102123.56;4972954;28;20465;-60
2023/01/31 06:37:08;;;;;;;23.48;4.53;;;;;;;5.69;100.00;102020.38;4973407;28;20130;-60
2023/01/31 06:39:34;;;;;;;17.75;4.05;;;;;;;6.04;100.00;102072.03;4971381;28;20549;-60
2023/01/31 06:41:59;;;;;;;17.10;4.35;;;;;;;6.12;100.00;102092.13;4972697;28;20047;-62
2023/01/31 06:44:24;;;;;;;20.35;6.00;;;;;;;5.62;100.00;101999.44;4972581;28;20582;-60
2023/01/31 06:46:50;;;;;;;21.58;4.57;;;;;;;6.08;100.00;102082.50;4971555;28;20035;-61
2023/01/31 06:49:15;;;;;;;17.27;3.70;;;;;;;6.06;100.00;102078.13;4971809;28;20116;-60
2023/01/31 06:51:40;;;;;;;13.02;3.28;;;;;;;5.50;100.00;101981.97;4971220;28;20059;-59
2023/01/31 06:54:06;;;;;;;15.65;4.10;;;;;;;6.01;100.00;102074.63;4972436;28;20051;-61
2023/01/31 06:56:31;;;;;;;22.52;3.75;;;;;;;6.03;100.00;102075.50;4972478;28;20038;-60
2023/01/31 06:58:57;;;;;;;16.60;3.63;;;;;;;5.61;100.00;102009.00;4972796;28;20455;-60
2023/01/31 07:01:23;;;;;;;15.50;3.13;;;;;;;5.99;100.00;102066.75;4971415;28;20157;-61
2023/01/31 07:03:48;;;;;;;21.70;4.28;;;;;;;5.97;100.00;102065.00;4972864;28;20552;-60
2023/01/31 07:06:14;;;;;;;23.70;3.88;;;;;;;5.82;100.00;102021.34;4974864;28;20042;-63
2023/01/31 07:08:39;;;;;;;21.50;4.75;;;;;;;5.93;100.00;102050.16;4975889;28;20043;-62
2023/01/31 07:11:04;;;;;;;18.60;3.72;;;;;;;5.90;100.00;102040.56;4975970;28;20478;-64
2023/01/31 07:13:30;;;;;;;22.70;3.70;;;;;;;5.91;100.00;102044.06;4974550;28;20039;-62
2023/01/31 07:15:56;;;;;;;18.20;3.65;;;;;;;5.44;100.00;101962.75;4976467;28;20130;-61
2023/01/31 07:18:22;;;;;;;17.08;3.47;;;;;;;5.87;100.00;102039.69;4975888;28;20070;-65
2023/01/31 07:20:48;;;;;;;18.02;3.67;;;;;;;5.99;100.00;102056.31;4975181;28;20552;-62
2023/01/31 07:23:14;;;;;;;14.52;3.70;;;;;;;5.57;100.00;101970.66;4974404;28;20117;-61
2023/01/31 07:25:39;;;;;;;17.92;3.63;;;;;;;5.94;100.00;102028.41;4975855;28;20130;-64
2023/01/31 07:28:04;;;;;;;16.15;3.47;;;;;;;5.57;100.00;101959.38;4975945;28;20082;-63
2023/01/31 07:30:30;;;;;;;19.88;3.15;;;;;;;6.11;100.00;102045.91;4975813;28;20121;-63
2023/01/31 07:32:55;;;;;;;15.32;3.45;;;;;;;6.04;100.00;102028.44;4975908;28;20121;-62
2023/01/31 07:35:21;;;;;;;18.55;3.40;;;;;;;6.11;100.00;102016.28;4975515;28;20254;-64
2023/01/31 07:37:46;;;;;;;11.63;2.67;;;;;;;5.79;100.00;101950.78;4974147;28;20059;-62
2023/01/31 07:40:13;;;;;;;18.05;3.70;;;;;;;5.85;100.00;101947.31;4975497;28;20039;-62
2023/01/31 07:42:40;;;;;;;15.82;3.28;;;;;;;6.29;100.00;102033.78;4975308;28;20065;-64
2023/01/31 07:45:06;;;;;;;14.98;4.13;;;;;;;6.35;100.00;102031.22;4974171;28;20038;-61
2023/01/31 07:47:32;;;;;;;12.02;3.00;;;;;;;5.73;100.00;101908.06;4975434;28;20078;-61
2023/01/31 07:49:57;;;;;;;22.15;4.35;;;;;;;5.96;100.00;101963.94;4975112;28;20241;-60
2023/01/31 07:52:22;;;;;;;15.90;2.58;;;;;;;6.39;100.00;102010.28;4975154;28;20046;-60
2023/01/31 07:54:48;;;;;;;18.17;3.83;;;;;;;6.36;100.00;102023.38;4974892;28;20049;-60
2023/01/31 07:57:16;;;;;;;14.10;3.65;;;;;;;6.29;100.00;102003.28;4975488;28;20474;-61
2023/01/31 07:59:43;;;;;;;12.18;2.53;;;;;;;5.85;100.00;101932.56;4973925;28;20043;-61
2023/01/31 08:04:55;;;;;;;18.83;3.70;;;;;;;6.18;100.00;102013.72;4973580;28;20565;-61
2023/01/31 08:07:20;;;;;;;12.93;3.65;;;;;;;5.69;100.00;101923.72;4972875;28;20058;-61
2023/01/31 08:09:48;;;;;;;14.80;3.45;;;;;;;6.22;100.00;102006.75;4971318;28;20030;-60
2023/01/31 08:12:14;;;;;;;15.82;3.55;;;;;;;6.23;100.00;102011.13;4972517;28;20053;-59
2023/01/31 08:14:39;;;;;;;17.45;3.90;;;;;;;6.22;100.00;102012.84;4972118;28;20043;-62
2023/01/31 08:17:07;;;;;;;18.77;3.60;;;;;;;5.47;100.00;101879.22;4971950;28;20039;-60
2023/01/31 08:19:33;;;;;;;14.23;3.13;;;;;;;5.95;100.00;101967.44;4972206;28;20030;-62
2023/01/31 08:21:58;;;;;;;10.82;3.10;;;;;;;5.73;100.00;101929.84;4971379;28;20486;-61
2023/01/31 08:24:24;;;;;;;17.83;4.03;;;;;;;6.05;100.00;101962.25;4955200;28;20046;-61
2023/01/31 08:26:49;;;;;;;18.30;3.72;;;;;;;5.68;100.00;101919.38;4973119;28;20090;-60
2023/01/31 08:29:14;;;;;;;16.77;4.05;;;;;;;6.00;100.00;101984.88;4973018;28;20031;-61
2023/01/31 08:31:41;;;;;;;9.77;3.55;;;;;;;5.85;100.00;101963.00;4973017;28;20541;-61
2023/01/31 08:34:06;;;;;;;22.52;5.13;;;;;;;4.69;100.00;101757.88;4972468;28;20034;-61
2023/01/31 08:36:32;;;;;;;12.27;3.45;;;;;;;5.98;100.00;101978.75;4972629;28;20094;-61
2023/01/31 08:38:57;;;;;;;14.38;2.90;;;;;;;5.99;100.00;101983.13;4955287;28;20043;-60
2023/01/31 08:41:25;;;;;;;15.27;3.13;;;;;;;5.87;100.00;101966.50;4972007;28;20031;-60
2023/01/31 08:43:51;;;;;;;12.40;3.33;;;;;;;5.58;100.00;101901.91;4973375;28;20049;-60
2023/01/31 08:46:17;;;;;;;17.85;4.07;;;;;;;5.69;100.00;101886.31;4973658;28;20037;-60
2023/01/31 08:48:43;;;;;;;16.02;3.30;;;;;;;6.28;100.00;101966.66;4973046;28;20035;-62
2023/01/31 08:51:10;;;;;;;16.85;3.17;;;;;;;6.00;100.00;101896.03;4971454;28;20047;-61
2023/01/31 08:53:43;;;;;;;17.65;3.70;;;;;;;6.56;100.00;101989.44;4973625;28;20045;-60
2023/01/31 08:56:09;;;;;;;16.63;3.95;;;;;;;6.14;100.00;101916.97;4971607;28;20031;-61
2023/01/31 08:58:36;;;;;;;17.95;3.50;;;;;;;6.63;100.00;101996.41;4971661;28;20061;-62
2023/01/31 09:01:07;;;;;;;16.02;3.72;;;;;;;6.24;100.00;101937.06;4972246;28;20404;-60
2023/01/31 09:03:33;;;;;;;17.50;3.17;;;;;;;6.67;100.00;102003.41;4972063;28;20043;-61
2023/01/31 09:06:03;;;;;;;16.73;4.13;;;;;;;6.74;100.00;101998.16;4972887;28;20031;-61
2023/01/31 09:08:29;;;;;;;22.77;4.18;;;;;;;6.86;100.00;102007.78;4971885;28;20030;-60
2023/01/31 09:10:55;;;;;;;15.32;3.75;;;;;;;6.80;100.00;101966.78;4973119;28;20086;-62
2023/01/31 09:13:21;;;;;;;17.30;4.03;;;;;;;6.56;100.00;101922.31;4971512;28;20033;-61
2023/01/31 09:15:55;;;;;;;16.85;3.72;;;;;;;7.12;100.00;101973.78;4972725;28;20031;-60
2023/01/31 09:18:21;;;;;;;15.38;3.90;;;;;;;6.99;100.00;101910.09;4972894;28;20031;-61
2023/01/31 09:20:46;;;;;;;21.23;3.72;;;;;;;7.46;100.00;101962.41;4971900;28;20335;-62
2023/01/31 09:23:13;;;;;;;20.17;3.85;;;;;;;7.54;100.00;101939.66;4971359;28;20122;-59
2023/01/31 09:25:38;;;;;;;18.00;3.72;;;;;;;7.35;100.00;101890.84;4972717;28;20051;-59
2023/01/31 09:28:04;;;;;;;16.52;4.15;;;;;;;7.51;100.00;101896.88;4971906;28;20054;-61
2023/01/31 09:30:29;;;;;;;15.82;3.80;;;;;;;7.62;100.00;101877.63;4972454;28;20046;-61
2023/01/31 09:32:54;;;;;;;14.68;3.42;;;;;;;8.06;100.00;101958.72;4972313;28;20125;-59
2023/01/31 09:35:20;;;;;;;16.50;4.05;;;;;;;8.01;100.00;101946.50;4972730;28;20113;-61
2023/01/31 09:37:45;;;;;;;17.52;4.30;;;;;;;7.81;100.00;101934.34;4972574;28;20042;-61
2023/01/31 09:40:18;;;;;;;18.33;3.72;;;;;;;7.42;100.00;101892.53;4972337;28;20031;-61
2023/01/31 09:42:45;;;;;;;20.63;4.30;;;;;;;7.23;100.00;101877.75;4970956;28;20043;-60
2023/01/31 09:45:13;;;;;;;18.35;4.80;;;;;;;7.60;100.00;101962.38;4971108;28;20117;-61
2023/01/31 09:47:46;;;;;;;16.25;3.88;;;;;;;7.56;100.00;101951.00;4972346;28;20039;-61
2023/01/31 09:50:22;;;;;;;22.48;5.13;;;;;;;7.63;100.00;101950.13;4970781;28;20062;-61
2023/01/31 09:52:49;;;;;;;26.00;5.28;;;;;;;7.64;100.00;101951.00;4970757;28;20031;-68
2023/01/31 09:55:19;;;;;;;17.08;4.18;;;;;;;7.63;100.00;101939.66;4972186;28;20030;-60
2023/01/31 09:58:12;;;;;;;21.73;4.93;;;;;;;7.69;100.00;101963.22;4970942;28;20026;-60
2023/01/31 10:00:51;;;;;;;20.75;4.93;;;;;;;7.73;100.00;101957.09;4971893;28;20442;-61
2023/01/31 10:03:23;;;;;;;17.25;4.05;;;;;;;7.42;100.00;101895.16;4970822;28;20034;-61
2023/01/31 10:05:54;;;;;;;17.05;4.03;;;;;;;7.80;100.00;101955.31;4972241;28;20058;-61
2023/01/31 10:08:22;;;;;;;17.55;3.70;;;;;;;7.82;100.00;101959.66;4970842;28;20031;-62
2023/01/31 10:10:54;;;;;;;19.65;4.13;;;;;;;7.86;100.00;101964.03;4972441;28;20041;-62
2023/01/31 10:13:23;;;;;;;;;;;;;;;7.89;100.00;101968.41;4970209;28;20513;-63
2023/01/31 10:16:01;;;;;;;20.35;4.15;;;;;;;7.92;100.00;101969.25;4969520;28;19918;-62
2023/01/31 10:18:33;;;;;;;19.15;4.57;;;;;;;7.74;100.00;101957.94;4972086;28;20039;-60
2023/01/31 10:21:10;;;;;;;17.00;4.00;;;;;;;7.94;100.00;101974.47;4954809;28;20126;-62
2023/01/31 10:23:51;;;;;;;23.08;5.70;;;;;;;7.91;100.00;101964.00;4972253;28;20054;-61
2023/01/31 10:26:24;;;;;;;;;;;;;;;7.96;100.00;101966.63;4972528;28;20437;-61
2023/01/31 10:28:57;;;;;;;18.98;4.43;;;;;;;7.43;100.00;101882.94;4972078;28;19980;-60
2023/01/31 10:31:29;;;;;;;12.75;3.90;;;;;;;7.89;100.00;101965.78;4972191;28;20041;-61
2023/01/31 10:34:04;;;;;;;16.65;4.28;;;;;;;7.89;100.00;101961.41;4970827;28;20409;-63
2023/01/31 10:36:49;;;;;;;20.52;4.25;;;;;;;7.87;100.00;101949.19;4971543;28;20026;-61
2023/01/31 10:39:22;;;;;;;18.85;4.57;;;;;;;7.83;100.00;101926.47;4971763;28;20113;-61
2023/01/31 10:42:10;;;;;;;24.35;4.97;;;;;;;8.05;100.00;101948.25;4974366;28;20078;-61
2023/01/31 10:44:43;;;;;;;19.70;3.90;;;;;;;8.07;100.00;101964.84;4974504;28;20035;-62
2023/01/31 10:47:15;;;;;;;24.70;4.45;;;;;;;7.98;100.00;101936.03;4974499;28;20461;-61
2023/01/31 10:49:45;;;;;;;19.95;4.40;;;;;;;7.58;100.00;101877.66;4975805;28;20026;-59
2023/01/31 10:52:15;;;;;;;22.55;4.00;;;;;;;7.94;100.00;101929.91;4974311;28;20089;-62
2023/01/31 10:54:52;;;;;;;16.58;3.90;;;;;;;7.74;100.00;101890.69;4974699;28;20030;-62
2023/01/31 10:57:18;;;;;;;18.23;4.35;;;;;;;8.03;100.00;101953.47;4975852;28;20030;-61
2023/01/31 10:59:46;;;;;;;17.52;3.85;;;;;;;8.08;100.00;101959.59;4975576;28;20035;-60
2023/01/31 11:02:21;;;;;;;16.10;3.85;;;;;;;7.93;100.00;101915.97;4975243;28;20027;-60
2023/01/31 11:04:49;;;;;;;22.90;4.40;;;;;;;7.84;100.00;101902.88;4973991;28;20031;-61
2023/01/31 11:07:14;;;;;;;18.95;4.60;;;;;;;8.19;100.00;101954.28;4975248;28;20085;-61
2023/01/31 11:09:50;;;;;;;16.67;4.40;;;;;;;7.72;100.00;101883.72;4975091;28;20038;-61
2023/01/31 11:12:16;;;;;;;18.90;4.20;;;;;;;7.82;100.00;101890.69;4975105;28;20568;-59
2023/01/31 11:14:41;;;;;;;15.48;3.72;;;;;;;8.27;100.00;101976.09;4975194;28;20074;-61
2023/01/31 11:17:20;;;;;;;17.23;4.03;;;;;;;8.17;100.00;101953.44;4974961;28;20042;-59
2023/01/31 11:19:50;;;;;;;22.38;4.00;;;;;;;8.27;100.00;101974.38;4973301;28;20030;-60
2023/01/31 11:22:25;;;;;;;16.92;4.25;;;;;;;8.10;100.00;101949.97;4973673;28;20078;-61
2023/01/31 11:24:51;;;;;;;18.65;3.90;;;;;;;8.29;100.00;101974.41;4973892;28;20344;-62
2023/01/31 11:27:29;;;;;;;12.90;3.63;;;;;;;8.22;100.00;101960.41;4973822;28;20047;-61
2023/01/31 11:29:57;;;;;;;18.45;3.97;;;;;;;8.29;100.00;101948.16;4957679;28;20423;-61
2023/01/31 11:32:25;;;;;;;17.80;4.10;;;;;;;8.25;100.00;101964.75;4973284;28;20418;-60